Time;durP1;ratioP1;P1;durP2;ratioP2;P2;SDS_P1;SDS_P2;PMS_P1;PMS_P2;Temp;Humidity;BMP_temperature;BMP_pressure;BME280_temperature;BME280_humidity;BME280_pressure;Samples;Min_cycle;Max_cycle;Signal;HPM_P1;HPM_P2
2020/12/02 00:02:33;;;;;;;62.13;30.50;;;4.30;92.40;;;;;;5011735;28;20042;-71
2020/12/02 00:05:05;;;;;;;59.23;29.53;;;4.30;92.50;;;;;;5013384;28;20148;-72
2020/12/02 00:07:32;;;;;;;69.97;31.93;;;4.30;92.40;;;;;;5013634;28;20048;-72
2020/12/02 00:09:58;;;;;;;67.93;31.90;;;4.30;92.40;;;;;;5012019;28;20107;-72
2020/12/02 00:12:24;;;;;;;64.33;31.03;;;4.20;92.50;;;;;;5013044;28;20088;-72
2020/12/02 00:14:50;;;;;;;74.40;33.10;;;4.20;92.50;;;;;;5013617;28;20022;-71
2020/12/02 00:17:21;;;;;;;71.37;34.83;;;4.30;92.60;;;;;;5013161;28;20030;-71
2020/12/02 00:19:49;;;;;;;69.97;33.25;;;4.30;92.60;;;;;;5013623;28;20037;-72
2020/12/02 00:22:21;;;;;;;72.27;33.77;;;4.20;92.50;;;;;;5012343;28;20046;-72
2020/12/02 00:24:50;;;;;;;68.43;33.67;;;4.30;92.50;;;;;;5013647;28;20042;-72
2020/12/02 00:27:20;;;;;;;73.40;32.93;;;4.20;92.50;;;;;;5011742;28;20546;-71
2020/12/02 00:29:47;;;;;;;63.00;31.38;;;4.20;92.50;;;;;;5013466;28;20034;-72
2020/12/02 00:32:23;;;;;;;71.57;34.20;;;4.20;92.40;;;;;;5012356;28;20117;-72
2020/12/02 00:34:49;;;;;;;69.23;33.30;;;4.10;92.40;;;;;;5013288;28;20041;-71
2020/12/02 00:37:14;;;;;;;68.47;32.50;;;4.10;92.40;;;;;;5012822;28;20044;-71
2020/12/02 00:39:40;;;;;;;72.17;33.90;;;4.10;92.50;;;;;;5013209;28;20395;-71
2020/12/02 00:42:06;;;;;;;74.23;35.00;;;4.10;92.50;;;;;;5012464;28;20069;-71
2020/12/02 00:44:32;;;;;;;63.57;31.30;;;4.10;92.60;;;;;;5011268;28;20080;-72
2020/12/02 00:46:59;;;;;;;74.40;34.60;;;4.10;92.70;;;;;;5013047;28;20437;-72
2020/12/02 00:49:24;;;;;;;70.03;33.07;;;4.10;92.70;;;;;;5012658;28;20559;-72
2020/12/02 00:51:50;;;;;;;76.50;35.30;;;4.10;92.80;;;;;;5011056;28;20148;-72
2020/12/02 00:54:16;;;;;;;76.37;35.40;;;4.10;92.70;;;;;;5011938;28;20030;-72
2020/12/02 00:56:46;;;;;;;67.53;32.53;;;4.10;92.90;;;;;;5013213;28;20033;-72
2020/12/02 00:59:21;;;;;;;73.10;34.93;;;4.10;92.70;;;;;;5012158;28;20045;-72
2020/12/02 01:02:00;;;;;;;70.10;33.53;;;4.10;92.70;;;;;;4994473;28;20045;-71
2020/12/02 01:04:26;;;;;;;72.90;33.77;;;4.10;92.80;;;;;;5012751;28;20533;-72
2020/12/02 01:06:53;;;;;;;71.30;32.57;;;4.10;92.80;;;;;;5012149;28;20034;-71
2020/12/02 01:09:20;;;;;;;70.57;33.00;;;4.20;92.80;;;;;;5012662;28;20467;-72
2020/12/02 01:11:46;;;;;;;67.83;33.07;;;4.10;92.70;;;;;;5010820;28;20042;-71
2020/12/02 01:14:15;;;;;;;63.37;31.77;;;4.20;92.70;;;;;;5012555;28;20498;-72
2020/12/02 01:16:44;;;;;;;71.93;32.90;;;4.20;92.70;;;;;;5012469;28;20053;-71
2020/12/02 01:19:12;;;;;;;64.90;30.50;;;4.20;92.70;;;;;;5012166;28;20041;-70
2020/12/02 01:21:47;;;;;;;68.73;32.47;;;4.10;92.80;;;;;;5011643;28;20037;-71
2020/12/02 01:24:19;;;;;;;64.23;30.63;;;4.20;92.80;;;;;;5011519;28;20052;-72
2020/12/02 01:26:49;;;;;;;70.90;34.03;;;4.20;92.80;;;;;;5010926;28;20049;-71
2020/12/02 01:29:21;;;;;;;63.87;32.20;;;4.10;92.80;;;;;;5011745;28;20064;-72
2020/12/02 01:31:51;;;;;;;69.93;32.33;;;4.20;92.90;;;;;;5011675;28;20495;-71
2020/12/02 01:34:18;;;;;;;74.13;34.15;;;4.20;92.80;;;;;;5012493;28;20042;-72
2020/12/02 01:37:10;;;;;;;70.97;31.87;;;4.20;92.80;;;;;;5012659;28;20042;-71
2020/12/02 01:39:46;;;;;;;68.10;32.40;;;4.10;92.80;;;;;;5012606;28;20050;-71
2020/12/02 01:42:13;;;;;;;70.23;32.70;;;4.20;92.90;;;;;;5010540;28;20046;-72
2020/12/02 01:44:41;;;;;;;73.27;32.50;;;4.10;92.80;;;;;;5010843;28;20061;-72
2020/12/02 01:47:32;;;;;;;69.70;33.07;;;4.20;92.80;;;;;;5012534;28;20458;-71
2020/12/02 01:50:34;;;;;;;65.10;31.57;;;4.20;92.90;;;;;;5010182;28;20069;-70
2020/12/02 01:53:12;;;;;;;67.07;31.50;;;4.20;92.80;;;;;;5009828;28;20042;-72
2020/12/02 01:55:53;;;;;;;64.00;31.20;;;4.20;92.80;;;;;;5011989;28;20104;-71
2020/12/02 01:58:42;;;;;;;68.10;31.93;;;4.10;92.80;;;;;;5011492;28;20034;-72
2020/12/02 02:01:17;;;;;;;65.07;32.00;;;4.20;92.80;;;;;;5020842;28;20052;-72
2020/12/02 02:03:46;;;;;;;67.40;31.07;;;4.20;92.80;;;;;;5010690;28;20057;-71
2020/12/02 02:06:19;;;;;;;62.70;30.33;;;4.20;92.80;;;;;;4993394;28;20499;-72
2020/12/02 02:08:45;;;;;;;70.20;32.50;;;4.10;92.80;;;;;;4994381;28;20045;-71
2020/12/02 02:11:16;;;;;;;68.67;32.03;;;4.10;92.80;;;;;;5009732;28;20125;-71
2020/12/02 02:14:07;;;;;;;72.17;33.43;;;4.10;92.80;;;;;;5025970;28;20072;-72
2020/12/02 02:16:45;;;;;;;67.50;32.03;;;4.10;92.80;;;;;;5010903;28;20057;-71
2020/12/02 02:19:21;;;;;;;70.03;31.50;;;4.10;92.80;;;;;;5010093;28;20125;-71
2020/12/02 02:21:54;;;;;;;68.60;32.27;;;4.10;92.80;;;;;;5009162;28;20046;-71
2020/12/02 02:24:21;;;;;;;65.40;31.27;;;4.10;92.80;;;;;;5010320;28;20033;-72
2020/12/02 02:26:50;;;;;;;76.47;33.57;;;4.10;92.70;;;;;;5009321;28;20173;-72
2020/12/02 02:29:21;;;;;;;69.53;32.53;;;4.10;92.70;;;;;;5009844;28;20038;-71
2020/12/02 02:32:14;;;;;;;69.10;33.13;;;4.10;92.70;;;;;;5010097;28;20487;-71
2020/12/02 02:34:47;;;;;;;68.47;32.07;;;4.10;92.60;;;;;;5005307;28;20038;-72
2020/12/02 02:37:14;;;;;;;70.60;32.70;;;4.00;92.90;;;;;;5011045;28;20045;-72
2020/12/02 02:39:41;;;;;;;69.93;32.40;;;4.00;92.70;;;;;;5009259;28;20382;-72
2020/12/02 02:42:26;;;;;;;65.47;31.63;;;4.00;92.70;;;;;;5010070;28;20042;-71
2020/12/02 02:44:52;;;;;;;68.67;32.10;;;4.00;92.80;;;;;;5010362;28;20072;-72
2020/12/02 02:47:19;;;;;;;68.47;32.17;;;4.10;92.80;;;;;;5010803;28;20473;-71
2020/12/02 02:49:45;;;;;;;72.70;33.57;;;4.10;92.70;;;;;;5011534;28;20037;-72
2020/12/02 02:52:11;;;;;;;63.37;30.60;;;4.00;92.70;;;;;;5010353;28;20083;-72
2020/12/02 02:54:37;;;;;;;70.30;32.50;;;4.00;92.70;;;;;;5010059;28;20042;-72
2020/12/02 02:57:03;;;;;;;66.53;31.13;;;4.00;92.70;;;;;;5009591;28;20034;-71
2020/12/02 02:59:29;;;;;;;69.03;32.13;;;4.00;92.70;;;;;;5010822;28;20033;-72
2020/12/02 03:01:55;;;;;;;70.87;32.43;;;4.10;92.80;;;;;;5008639;28;20513;-71
2020/12/02 03:04:21;;;;;;;70.87;32.87;;;4.10;92.90;;;;;;5010041;28;20041;-72
2020/12/02 03:06:47;;;;;;;62.43;30.20;;;4.10;92.80;;;;;;5009502;28;20045;-72
2020/12/02 03:09:13;;;;;;;63.10;30.23;;;4.10;92.80;;;;;;5008886;28;20061;-72
2020/12/02 03:11:40;;;;;;;63.20;29.33;;;4.10;92.80;;;;;;5009932;28;20030;-71
2020/12/02 03:14:08;;;;;;;62.93;29.80;;;4.10;92.80;;;;;;5008886;28;20034;-72
2020/12/02 03:16:47;;;;;;;67.70;30.90;;;4.10;93.00;;;;;;5008659;28;20041;-72
2020/12/02 03:19:16;;;;;;;65.17;31.90;;;4.10;92.80;;;;;;5010068;28;20120;-70
2020/12/02 03:21:41;;;;;;;56.87;28.70;;;4.10;92.80;;;;;;5009617;28;20101;-72
2020/12/02 03:24:09;;;;;;;64.87;30.27;;;4.10;92.80;;;;;;5008738;28;20049;-71
2020/12/02 03:26:35;;;;;;;67.87;32.57;;;4.10;92.80;;;;;;5009748;28;20609;-72
2020/12/02 03:29:02;;;;;;;67.07;32.27;;;4.10;92.90;;;;;;5008895;28;20052;-71
2020/12/02 03:31:28;;;;;;;63.33;31.40;;;4.10;92.90;;;;;;5008547;28;20121;-71
2020/12/02 03:33:53;;;;;;;60.53;30.03;;;4.10;92.90;;;;;;5009540;28;20148;-71
2020/12/02 03:36:20;;;;;;;61.70;30.73;;;4.10;92.90;;;;;;5012250;28;20045;-72
2020/12/02 03:38:47;;;;;;;65.37;31.20;;;4.10;92.90;;;;;;5013668;28;20057;-72
2020/12/02 03:41:13;;;;;;;65.00;30.33;;;4.10;92.90;;;;;;5014163;28;20042;-71
2020/12/02 03:43:39;;;;;;;66.73;31.13;;;4.10;92.80;;;;;;5011749;28;20460;-72
2020/12/02 03:46:05;;;;;;;60.23;30.13;;;4.10;92.90;;;;;;5013943;28;20066;-72
2020/12/02 03:48:31;;;;;;;64.07;31.23;;;4.10;93.10;;;;;;5012777;28;20077;-71
2020/12/02 03:50:57;;;;;;;66.77;32.17;;;4.10;92.80;;;;;;5013992;28;20076;-72
2020/12/02 03:53:23;;;;;;;64.97;31.77;;;4.10;93.00;;;;;;5012884;28;20084;-72
2020/12/02 03:55:49;;;;;;;65.27;31.40;;;4.10;92.70;;;;;;5014155;28;20037;-72
2020/12/02 03:58:15;;;;;;;60.13;31.03;;;4.00;92.70;;;;;;5014450;28;20050;-71
2020/12/02 04:00:41;;;;;;;62.93;31.27;;;4.00;92.80;;;;;;5012079;28;20152;-71
2020/12/02 04:03:07;;;;;;;66.67;31.80;;;4.00;92.80;;;;;;5016046;28;20042;-75
2020/12/02 04:05:33;;;;;;;65.10;31.10;;;4.00;92.70;;;;;;4996520;28;20510;-77
2020/12/02 04:07:59;;;;;;;66.50;32.00;;;4.00;92.60;;;;;;5012503;28;20037;-77
2020/12/02 04:10:25;;;;;;;67.23;31.90;;;4.00;92.70;;;;;;5012580;28;20395;-78
2020/12/02 04:12:51;;;;;;;64.83;30.17;;;4.00;92.70;;;;;;5035665;28;20042;-77
2020/12/02 04:15:20;;;;;;;65.80;31.00;;;4.00;92.80;;;;;;5031815;28;20037;-77
2020/12/02 04:17:47;;;;;;;63.57;30.83;;;4.00;92.80;;;;;;5032173;28;20045;-77
2020/12/02 04:20:13;;;;;;;63.47;30.87;;;4.00;92.80;;;;;;5033028;28;20038;-77
2020/12/02 04:22:38;;;;;;;65.87;31.10;;;4.10;92.80;;;;;;5031355;28;20213;-77
2020/12/02 04:25:06;;;;;;;65.77;32.43;;;4.10;93.00;;;;;;5031577;28;20682;-77
2020/12/02 04:27:32;;;;;;;64.47;31.40;;;4.10;92.80;;;;;;5039255;28;20049;-77
2020/12/02 04:29:57;;;;;;;58.63;29.97;;;4.10;92.80;;;;;;5033203;28;20046;-77
2020/12/02 04:32:23;;;;;;;64.97;31.70;;;4.10;92.80;;;;;;5044132;28;20039;-77
2020/12/02 04:34:49;;;;;;;65.13;32.07;;;4.10;92.70;;;;;;5045241;28;20507;-74
2020/12/02 04:37:15;;;;;;;64.57;31.30;;;4.10;92.70;;;;;;5049683;28;20099;-77
2020/12/02 04:39:43;;;;;;;61.80;30.40;;;4.10;92.70;;;;;;5033280;28;20037;-77
2020/12/02 04:42:08;;;;;;;62.23;30.73;;;4.10;92.70;;;;;;5029421;28;20030;-78
2020/12/02 04:44:35;;;;;;;63.47;31.47;;;4.10;93.00;;;;;;5011954;28;20030;-76
2020/12/02 04:47:01;;;;;;;67.67;31.70;;;4.10;92.80;;;;;;5012660;28;20038;-77
2020/12/02 04:49:30;;;;;;;60.57;30.67;;;4.10;92.80;;;;;;5013802;28;20452;-77
2020/12/02 04:52:04;;;;;;;60.07;28.37;;;4.10;92.80;;;;;;5012089;28;20033;-77
2020/12/02 04:54:30;;;;;;;62.73;29.63;;;4.10;92.70;;;;;;5012883;28;20483;-77
2020/12/02 04:56:56;;;;;;;68.23;32.60;;;4.10;92.70;;;;;;5042208;28;20129;-77
2020/12/02 04:59:37;;;;;;;65.77;31.90;;;4.10;92.70;;;;;;5048638;28;20052;-77
2020/12/02 05:02:03;;;;;;;61.05;30.83;;;4.10;92.80;;;;;;5030994;28;20041;-77
2020/12/02 05:04:29;;;;;;;62.97;31.43;;;4.10;92.80;;;;;;5031652;28;20038;-77
2020/12/02 05:07:03;;;;;;;57.83;28.97;;;4.10;92.80;;;;;;5032173;28;20038;-77
2020/12/02 05:09:30;;;;;;;57.77;29.27;;;4.10;92.80;;;;;;5032491;28;20471;-77
2020/12/02 05:11:59;;;;;;;66.07;30.93;;;4.10;92.80;;;;;;5031609;28;20522;-77
2020/12/02 05:14:32;;;;;;;61.00;29.37;;;4.10;92.80;;;;;;5032345;28;20037;-76
2020/12/02 05:17:21;;;;;;;61.40;30.40;;;4.10;92.70;;;;;;5032169;28;20060;-76
2020/12/02 05:20:03;;;;;;;62.80;29.93;;;4.20;92.70;;;;;;5032315;28;20041;-77
2020/12/02 05:22:34;;;;;;;57.73;29.13;;;4.10;92.70;;;;;;5031382;28;20048;-77
2020/12/02 05:25:00;;;;;;;62.17;31.00;;;4.20;92.70;;;;;;5032302;28;20041;-77
2020/12/02 05:27:31;;;;;;;57.73;29.40;;;4.10;92.70;;;;;;5030986;28;20060;-77
2020/12/02 05:30:17;;;;;;;61.43;31.20;;;4.10;92.70;;;;;;5031674;28;20556;-77
2020/12/02 05:33:12;;;;;;;60.57;30.67;;;4.10;92.70;;;;;;5031959;28;20130;-77
2020/12/02 05:35:47;;;;;;;64.77;31.63;;;4.20;92.80;;;;;;5032246;28;20044;-77
2020/12/02 05:38:23;;;;;;;61.50;30.07;;;4.10;92.70;;;;;;5032698;28;20494;-77
2020/12/02 05:40:51;;;;;;;57.73;30.13;;;4.10;92.70;;;;;;5030926;28;20521;-77
2020/12/02 05:43:45;;;;;;;60.60;30.97;;;4.10;92.70;;;;;;5031735;28;20090;-77
2020/12/02 05:46:37;;;;;;;60.57;30.10;;;4.10;92.70;;;;;;5012428;28;20117;-76
2020/12/02 05:49:12;;;;;;;57.67;28.80;;;4.20;92.60;;;;;;5010577;28;20038;-77
2020/12/02 05:51:39;;;;;;;56.27;30.27;;;4.10;92.60;;;;;;5012176;28;20042;-77
2020/12/02 05:54:10;;;;;;;60.37;29.70;;;4.10;92.60;;;;;;5012019;28;20080;-76
2020/12/02 05:56:36;;;;;;;57.20;29.07;;;4.10;92.50;;;;;;5012505;28;20061;-77
2020/12/02 05:59:02;;;;;;;54.73;29.37;;;4.00;92.50;;;;;;5011553;28;20062;-75
2020/12/02 06:01:29;;;;;;;64.77;30.97;;;4.00;92.50;;;;;;5011772;28;20813;-77
2020/12/02 06:03:56;;;;;;;61.90;32.07;;;4.00;92.50;;;;;;5010091;28;20049;-76
2020/12/02 06:06:26;;;;;;;64.27;31.47;;;4.00;92.50;;;;;;4994042;28;20050;-77
2020/12/02 06:08:52;;;;;;;57.53;28.23;;;3.90;92.50;;;;;;5010605;28;20407;-77
2020/12/02 06:11:18;;;;;;;61.20;31.13;;;4.00;92.60;;;;;;5010308;28;20034;-77
2020/12/02 06:14:11;;;;;;;58.17;29.90;;;3.90;92.50;;;;;;5010924;28;20049;-77
2020/12/02 06:16:41;;;;;;;56.23;29.23;;;3.90;92.50;;;;;;5010348;28;20045;-77
2020/12/02 06:19:45;;;;;;;60.43;30.90;;;3.90;92.50;;;;;;5010524;28;20034;-77
2020/12/02 06:22:11;;;;;;;57.20;28.53;;;3.90;92.50;;;;;;5012845;28;20528;-77
2020/12/02 06:24:39;;;;;;;58.83;30.17;;;3.90;92.60;;;;;;5024641;28;20033;-77
2020/12/02 06:27:43;;;;;;;58.93;29.93;;;3.90;92.60;;;;;;5031018;28;20094;-77
2020/12/02 06:30:15;;;;;;;62.27;31.97;;;3.90;92.40;;;;;;5028453;28;20033;-77
2020/12/02 06:33:00;;;;;;;59.70;28.97;;;4.00;92.50;;;;;;5030750;28;20102;-77
2020/12/02 06:35:26;;;;;;;53.83;28.10;;;3.90;92.50;;;;;;5031069;28;20782;-77
2020/12/02 06:38:19;;;;;;;57.33;30.80;;;3.90;92.40;;;;;;5029851;28;20133;-77
2020/12/02 06:41:26;;;;;;;56.87;28.57;;;3.90;92.40;;;;;;5029633;28;20040;-77
2020/12/02 06:43:56;;;;;;;55.17;29.77;;;3.90;92.40;;;;;;5030180;28;20037;-76
2020/12/02 06:46:55;;;;;;;58.90;29.92;;;3.90;92.40;;;;;;5031025;28;20044;-77
2020/12/02 06:49:23;;;;;;;52.70;28.77;;;4.00;92.50;;;;;;5030534;28;20033;-78
2020/12/02 06:51:58;;;;;;;56.03;28.93;;;3.90;92.40;;;;;;5029415;28;20041;-78
2020/12/02 06:54:27;;;;;;;61.63;30.00;;;4.00;92.40;;;;;;5030959;28;20121;-77
2020/12/02 06:56:57;;;;;;;49.77;27.23;;;4.00;92.40;;;;;;5031086;28;20041;-77
2020/12/02 06:59:22;;;;;;;53.50;28.77;;;3.90;92.30;;;;;;5029074;28;20559;-76
2020/12/02 07:01:50;;;;;;;58.90;29.50;;;4.00;92.30;;;;;;5030016;28;20057;-77
2020/12/02 07:04:22;;;;;;;60.30;30.50;;;3.90;92.30;;;;;;5030223;28;20071;-77
2020/12/02 07:06:58;;;;;;;57.50;28.83;;;4.00;92.30;;;;;;5030709;28;20052;-77
2020/12/02 07:09:24;;;;;;;52.63;28.50;;;3.90;92.30;;;;;;5029734;28;20037;-77
2020/12/02 07:11:59;;;;;;;56.07;29.33;;;4.00;92.30;;;;;;5028849;28;20044;-77
2020/12/02 07:14:33;;;;;;;53.67;27.83;;;3.90;92.30;;;;;;5030257;28;20042;-77
2020/12/02 07:17:00;;;;;;;55.07;29.70;;;4.00;92.30;;;;;;5030725;28;20037;-76
2020/12/02 07:19:47;;;;;;;57.53;28.90;;;4.00;92.40;;;;;;5029385;28;20033;-77
2020/12/02 07:22:24;;;;;;;49.23;27.60;;;4.00;92.40;;;;;;5029710;28;20045;-76
2020/12/02 07:24:52;;;;;;;55.00;29.03;;;4.00;92.30;;;;;;5030412;28;20045;-76
2020/12/02 07:27:21;;;;;;;53.00;27.37;;;4.00;92.30;;;;;;5030928;28;20037;-77
2020/12/02 07:29:59;;;;;;;52.03;27.90;;;4.10;92.30;;;;;;5029633;28;20113;-77
2020/12/02 07:32:25;;;;;;;52.43;28.43;;;4.00;92.20;;;;;;5029966;28;20112;-75
2020/12/02 07:35:12;;;;;;;55.90;29.20;;;4.10;92.20;;;;;;5030789;28;20132;-77
2020/12/02 07:37:38;;;;;;;53.50;27.53;;;4.00;92.30;;;;;;5029169;28;20049;-77
2020/12/02 07:40:06;;;;;;;55.17;28.60;;;4.10;92.40;;;;;;5029769;28;20037;-76
2020/12/02 07:42:41;;;;;;;50.83;28.87;;;4.10;92.20;;;;;;5029704;28;20045;-76
2020/12/02 07:45:20;;;;;;;54.57;29.10;;;4.00;92.10;;;;;;5029562;28;20033;-76
2020/12/02 07:47:57;;;;;;;56.87;29.47;;;4.00;92.20;;;;;;5030437;28;20025;-77
2020/12/02 07:50:29;;;;;;;55.80;29.67;;;4.00;92.00;;;;;;5030609;28;20398;-77
2020/12/02 07:53:02;;;;;;;55.77;28.77;;;4.00;92.00;;;;;;5029451;28;20037;-76
2020/12/02 07:55:46;;;;;;;54.43;28.33;;;4.00;92.10;;;;;;5030491;28;20053;-76
2020/12/02 07:58:25;;;;;;;56.47;28.97;;;4.00;92.10;;;;;;5012555;28;20033;-77
2020/12/02 08:00:51;;;;;;;54.10;28.70;;;4.00;92.00;;;;;;5030276;28;20057;-77
2020/12/02 08:03:33;;;;;;;53.90;28.13;;;4.00;92.30;;;;;;5027853;28;20056;-77
2020/12/02 08:06:14;;;;;;;54.17;28.33;;;4.00;92.00;;;;;;5029685;28;20037;-77
2020/12/02 08:08:40;;;;;;;50.92;27.27;;;4.00;92.10;;;;;;5030249;28;20091;-77
2020/12/02 08:11:09;;;;;;;53.60;28.90;;;4.00;92.00;;;;;;5029716;28;20464;-76
2020/12/02 08:13:44;;;;;;;53.77;29.03;;;4.00;92.00;;;;;;5029661;28;20048;-77
2020/12/02 08:16:25;;;;;;;53.43;28.23;;;4.00;92.00;;;;;;5011924;28;20045;-76
2020/12/02 08:18:53;;;;;;;56.38;29.20;;;4.10;92.00;;;;;;5030377;28;20461;-77
2020/12/02 08:21:21;;;;;;;55.77;29.50;;;4.00;92.00;;;;;;5029804;28;20126;-76
2020/12/02 08:24:10;;;;;;;54.30;29.30;;;4.10;92.00;;;;;;5033062;28;20048;-77
2020/12/02 08:26:36;;;;;;;53.50;29.57;;;4.10;92.20;;;;;;5032369;28;20064;-77
2020/12/02 08:29:06;;;;;;;53.70;27.43;;;4.10;92.00;;;;;;5034058;28;20080;-77
2020/12/02 08:31:33;;;;;;;54.07;28.20;;;4.10;91.90;;;;;;5032194;28;20041;-77
2020/12/02 08:34:18;;;;;;;52.47;27.80;;;4.10;91.80;;;;;;5032592;28;20037;-76
2020/12/02 08:36:49;;;;;;;53.53;27.53;;;4.20;91.90;;;;;;5033493;28;20087;-76
2020/12/02 08:39:29;;;;;;;48.67;26.67;;;4.20;91.80;;;;;;5032649;28;20564;-77
2020/12/02 08:41:56;;;;;;;52.58;27.27;;;4.20;91.80;;;;;;5032930;28;20034;-77
2020/12/02 08:44:21;;;;;;;48.67;26.80;;;4.20;91.90;;;;;;5033588;28;20037;-77
2020/12/02 08:46:55;;;;;;;48.07;25.57;;;4.20;91.90;;;;;;5033414;28;20041;-77
2020/12/02 08:49:28;;;;;;;48.03;25.90;;;4.30;91.90;;;;;;5032410;28;20145;-76
2020/12/02 08:51:53;;;;;;;50.23;27.83;;;4.40;91.80;;;;;;5032600;28;20066;-77
2020/12/02 08:54:22;;;;;;;46.23;24.80;;;4.40;91.70;;;;;;5033458;28;20064;-76
2020/12/02 08:56:49;;;;;;;47.20;25.50;;;4.40;91.80;;;;;;5031509;28;20041;-76
2020/12/02 08:59:14;;;;;;;48.27;27.27;;;4.60;91.90;;;;;;5032951;28;20053;-77
2020/12/02 09:01:40;;;;;;;46.70;26.00;;;4.70;91.90;;;;;;5032456;28;20068;-77
2020/12/02 09:04:07;;;;;;;44.67;23.50;;;4.80;91.70;;;;;;5032356;28;20644;-77
2020/12/02 09:06:33;;;;;;;44.57;24.97;;;4.90;91.60;;;;;;5032927;28;20033;-77
2020/12/02 09:08:59;;;;;;;45.87;25.33;;;4.90;91.20;;;;;;5032354;28;20033;-76
2020/12/02 09:11:32;;;;;;;45.40;25.53;;;5.00;91.00;;;;;;5031545;28;20048;-77
2020/12/02 09:13:59;;;;;;;43.83;25.43;;;4.90;91.10;;;;;;5030139;28;20112;-76
2020/12/02 09:16:34;;;;;;;44.63;24.77;;;5.00;91.10;;;;;;5032055;28;20180;-77
2020/12/02 09:19:01;;;;;;;44.47;24.60;;;4.90;90.70;;;;;;5032663;28;20050;-76
2020/12/02 09:21:28;;;;;;;44.53;25.43;;;4.80;90.70;;;;;;5030620;28;20041;-76
2020/12/02 09:23:56;;;;;;;42.70;24.20;;;4.70;90.80;;;;;;5031825;28;20049;-76
2020/12/02 09:26:24;;;;;;;44.23;24.53;;;4.70;90.80;;;;;;5031731;28;20041;-76
2020/12/02 09:28:51;;;;;;;44.87;24.93;;;4.60;90.80;;;;;;5032306;28;20502;-76
2020/12/02 09:31:20;;;;;;;46.70;25.30;;;4.60;90.90;;;;;;5030970;28;20037;-76
2020/12/02 09:33:47;;;;;;;46.70;24.83;;;4.60;90.70;;;;;;5028460;28;20037;-77
2020/12/02 09:36:13;;;;;;;44.00;24.10;;;4.50;90.70;;;;;;5031346;28;20033;-77
2020/12/02 09:38:39;;;;;;;44.07;24.67;;;4.50;90.70;;;;;;5030459;28;20107;-75
2020/12/02 09:41:23;;;;;;;44.30;25.67;;;4.40;90.60;;;;;;5031974;28;20463;-76
2020/12/02 09:44:21;;;;;;;42.90;24.27;;;4.40;90.50;;;;;;5029698;28;20398;-76
2020/12/02 09:46:53;;;;;;;41.43;24.33;;;4.30;90.50;;;;;;5013468;28;20050;-77
2020/12/02 09:49:19;;;;;;;48.07;27.17;;;4.30;90.60;;;;;;5030385;28;20086;-75
2020/12/02 09:51:52;;;;;;;47.57;26.30;;;4.20;90.60;;;;;;5031074;28;20041;-76
2020/12/02 09:54:19;;;;;;;39.53;21.43;;;4.30;90.60;;;;;;5032074;28;20120;-75
2020/12/02 09:56:45;;;;;;;46.83;25.40;;;4.20;90.60;;;;;;5031340;28;20041;-75
2020/12/02 09:59:12;;;;;;;44.00;24.70;;;4.20;90.50;;;;;;5030492;28;20167;-77
2020/12/02 10:02:05;;;;;;;48.53;25.20;;;4.20;90.40;;;;;;5030914;28;20034;-76
2020/12/02 10:04:31;;;;;;;49.23;26.23;;;4.10;90.30;;;;;;5031013;28;20493;-77
2020/12/02 10:07:07;;;;;;;45.67;25.23;;;4.10;90.30;;;;;;5031550;28;20040;-77
2020/12/02 10:10:15;;;;;;;43.47;24.30;;;4.00;90.50;;;;;;5031050;28;20057;-76
2020/12/02 10:13:11;;;;;;;48.50;26.30;;;4.10;90.50;;;;;;5012491;28;20042;-76
2020/12/02 10:16:13;;;;;;;46.13;26.13;;;4.10;90.50;;;;;;5012812;28;20087;-77
2020/12/02 10:18:58;;;;;;;47.47;26.73;;;4.10;90.60;;;;;;5012854;28;20038;-77
2020/12/02 10:21:55;;;;;;;46.47;26.97;;;4.20;90.50;;;;;;5029796;28;20075;-77
2020/12/02 10:24:41;;;;;;;43.83;24.40;;;4.20;90.40;;;;;;5029160;28;20188;-78
2020/12/02 10:27:30;;;;;;;46.10;24.73;;;4.20;90.40;;;;;;5029363;28;20034;-77
2020/12/02 10:30:17;;;;;;;45.63;25.33;;;4.30;90.40;;;;;;5031441;28;20068;-77
2020/12/02 10:33:22;;;;;;;42.07;24.40;;;4.30;90.20;;;;;;5030368;28;20099;-76
2020/12/02 10:35:49;;;;;;;43.23;24.83;;;4.30;90.00;;;;;;5030837;28;20033;-76
2020/12/02 10:38:29;;;;;;;43.00;25.83;;;4.30;90.10;;;;;;5031043;28;20048;-77
2020/12/02 10:41:08;;;;;;;46.77;26.23;;;4.30;90.20;;;;;;5030877;28;20068;-77
2020/12/02 10:44:02;;;;;;;45.77;25.50;;;4.30;90.20;;;;;;5028924;28;20046;-77
2020/12/02 10:46:46;;;;;;;45.87;26.20;;;4.40;90.20;;;;;;5027034;28;20084;-77
2020/12/02 10:49:27;;;;;;;45.77;26.13;;;4.40;90.00;;;;;;5029344;28;20037;-77
2020/12/02 10:51:56;;;;;;;45.08;26.17;;;4.30;90.00;;;;;;5029902;28;20083;-75
2020/12/02 10:54:24;;;;;;;42.57;25.03;;;4.30;90.00;;;;;;5012343;28;20095;-76
2020/12/02 10:56:56;;;;;;;45.87;25.30;;;4.30;89.60;;;;;;5029212;28;20608;-77
2020/12/02 10:59:25;;;;;;;45.03;25.47;;;4.30;89.50;;;;;;5028681;28;20115;-77
2020/12/02 11:01:52;;;;;;;44.37;25.27;;;4.20;89.60;;;;;;5030048;28;20038;-77
2020/12/02 11:04:21;;;;;;;45.27;25.00;;;4.20;89.60;;;;;;5028866;28;20092;-77
2020/12/02 11:07:04;;;;;;;47.57;25.73;;;4.20;89.70;;;;;;5028651;28;20045;-76
2020/12/02 11:09:48;;;;;;;46.37;25.77;;;4.20;89.80;;;;;;5029488;28;20044;-76
2020/12/02 11:12:42;;;;;;;44.20;25.97;;;4.20;89.70;;;;;;5029689;28;20044;-76
2020/12/02 11:15:34;;;;;;;43.80;24.07;;;4.20;89.60;;;;;;5028433;28;20041;-77
2020/12/02 11:18:03;;;;;;;44.93;25.73;;;4.20;89.70;;;;;;5029594;28;20041;-76
2020/12/02 11:20:44;;;;;;;44.20;25.03;;;4.20;89.60;;;;;;5030178;28;20102;-77
2020/12/02 11:23:29;;;;;;;46.75;24.63;;;4.20;89.60;;;;;;5029134;28;20463;-76
2020/12/02 11:26:24;;;;;;;44.67;25.47;;;4.20;89.60;;;;;;5030333;28;20041;-77
2020/12/02 11:28:52;;;;;;;48.00;24.97;;;4.20;89.40;;;;;;5029786;28;20109;-77
2020/12/02 11:31:33;;;;;;;47.07;26.23;;;4.20;89.70;;;;;;5030392;28;20057;-77
2020/12/02 11:34:19;;;;;;;45.35;25.13;;;4.20;90.00;;;;;;5030192;28;20029;-76
2020/12/02 11:37:03;;;;;;;44.43;25.57;;;4.30;90.00;;;;;;5018745;28;20493;-76
2020/12/02 11:40:01;;;;;;;43.80;24.53;;;4.40;90.00;;;;;;5029143;28;20040;-77
2020/12/02 11:43:08;;;;;;;45.07;25.23;;;4.40;89.20;;;;;;5029374;28;20026;-77
2020/12/02 11:45:38;;;;;;;42.73;24.23;;;4.40;88.90;;;;;;5028500;28;20478;-77
2020/12/02 11:48:29;;;;;;;39.83;23.90;;;4.30;88.90;;;;;;5030275;28;20030;-77
2020/12/02 11:51:18;;;;;;;43.87;25.93;;;4.30;89.20;;;;;;5029861;28;20268;-77
2020/12/02 11:53:54;;;;;;;43.80;24.53;;;4.30;89.30;;;;;;5027197;28;20061;-77
2020/12/02 11:56:31;;;;;;;46.00;27.07;;;4.40;89.60;;;;;;5031412;28;20025;-78
2020/12/02 11:59:09;;;;;;;45.97;26.17;;;4.40;89.30;;;;;;5033134;28;20120;-77
2020/12/02 12:01:56;;;;;;;48.20;26.57;;;4.50;89.50;;;;;;5032789;28;20088;-77
2020/12/02 12:04:34;;;;;;;47.40;26.20;;;4.50;89.30;;;;;;5033210;28;20051;-77
2020/12/02 12:07:15;;;;;;;50.77;27.37;;;4.50;88.90;;;;;;5033521;28;20046;-78
2020/12/02 12:09:42;;;;;;;45.90;25.77;;;4.50;88.60;;;;;;5033104;28;20115;-77
2020/12/02 12:12:25;;;;;;;41.53;24.57;;;4.40;88.60;;;;;;5032589;28;20036;-77
2020/12/02 12:15:06;;;;;;;43.93;25.63;;;4.40;88.90;;;;;;5032754;28;20048;-76
2020/12/02 12:17:39;;;;;;;44.70;24.97;;;4.40;89.00;;;;;;5033392;28;20136;-77
2020/12/02 12:20:12;;;;;;;44.57;24.73;;;4.40;89.20;;;;;;5032986;28;20034;-77
2020/12/02 12:22:48;;;;;;;44.13;24.90;;;4.50;89.00;;;;;;5032388;28;20040;-77
2020/12/02 12:25:35;;;;;;;41.53;23.03;;;4.50;88.80;;;;;;5030906;28;20508;-77
2020/12/02 12:28:11;;;;;;;46.00;24.90;;;4.50;89.00;;;;;;5032702;28;20041;-76
2020/12/02 12:30:37;;;;;;;43.57;25.77;;;4.50;88.70;;;;;;5032721;28;20103;-77
2020/12/02 12:33:21;;;;;;;43.50;24.67;;;4.50;88.80;;;;;;5030548;28;20136;-76
2020/12/02 12:35:56;;;;;;;42.70;25.60;;;4.50;88.90;;;;;;5032677;28;20042;-77
2020/12/02 12:38:43;;;;;;;43.60;24.43;;;4.60;88.80;;;;;;5029906;28;20054;-77
2020/12/02 12:41:23;;;;;;;44.30;25.27;;;4.60;89.00;;;;;;5032430;28;20037;-77
2020/12/02 12:44:08;;;;;;;41.67;23.40;;;4.60;88.70;;;;;;5030501;28;20079;-77
2020/12/02 12:47:01;;;;;;;42.43;24.83;;;4.70;88.70;;;;;;5030392;28;20487;-77
2020/12/02 12:49:29;;;;;;;42.80;25.03;;;4.70;88.40;;;;;;5030371;28;20033;-77
2020/12/02 12:51:57;;;;;;;44.53;24.73;;;4.70;88.20;;;;;;5011959;28;20453;-77
2020/12/02 12:54:23;;;;;;;41.53;24.77;;;4.70;88.20;;;;;;5030109;28;20029;-77
2020/12/02 12:56:52;;;;;;;41.33;24.37;;;4.70;88.70;;;;;;5028828;28;20517;-76
2020/12/02 12:59:20;;;;;;;46.07;26.37;;;4.70;88.50;;;;;;5030600;28;20526;-78
2020/12/02 13:01:49;;;;;;;45.27;25.23;;;4.70;88.40;;;;;;5012219;28;20470;-77
2020/12/02 13:04:17;;;;;;;43.97;24.23;;;4.80;88.70;;;;;;5029745;28;20517;-76
2020/12/02 13:07:11;;;;;;;41.33;23.77;;;4.80;88.70;;;;;;5013721;28;20048;-77
2020/12/02 13:10:14;;;;;;;43.33;24.90;;;4.80;88.20;;;;;;5030463;28;20042;-77